Accueil
METAR-TAF:

METAR-TAF

Aéroports :

Aéroport de Milaga

Tripoli, Libye

latitude: 32-54N, longitude: 13-17E, altitude: 11 m

Observation

Le bulletin a été fait il y a 13 minutes, à 03:50 UTC
Vent 2 kt de est/sud-est
Température 22°C
Humidité 88%
Pression 1015 hPa
Visibilité: 6000 m
Nuages épars à une hauteur de 2500 ft

METAR: HLLM 230350Z 12002KT 6000 SCT025 22/20 Q1015

Heure: 06:03 (04:03 UTC)

Prévision

Le bulletin a été fait il y a 5 heures et 3 minutes, à 23:00 UTC
Prévision valable du 23 à 00 UTC au 23 à 24 UTC
Vent 10 kt de est/nord-est
Visibilité 10 km ou plus
Quelques nuages à une hauteur de 2500 ft
Evoluant progressivement
du 23 à 03 UTC au 23 à 05 UTC
Vent 2 kt de direction variable
Visibilité: 8000 m
Evoluant progressivement
du 23 à 10 UTC au 23 à 12 UTC
Vent 10 kt de est/nord-est

TAF: HLLM 222300Z 2300/2324 07010KT 9999 FEW025 BECMG 2303/2305 VRB02KT 8000 NSC BECMG 2310/2312 06010KT

Observations et prévisions météorologiques de plus de 4000 aéroports (messages METAR et TAF).

Les stations disponibles sont représentées par des disques jaunes et rouges sur la carte.

Passer la souris dessus pour voir le nom de la station.

Cliquer dessus pour voir les observations et prévisions météorologiques.

Pour changer de carte: cliquez sur les boutons verts avec une croix noire pour zoomer, sur le bouton vert avec un tiret pour effectuer un zoom arrière, ou sur les flèches vertes pour les cartes adjacentes.


METAR-TAF: